createdAt,value
2023-06-30T00:00:35.832Z,89.73
2023-06-30T00:03:02.945Z,89.19
2023-06-30T00:05:30.013Z,88.78
2023-06-30T00:07:59.830Z,89.44
2023-06-30T00:10:27.112Z,89.55
2023-06-30T00:12:54.336Z,89.39
2023-06-30T00:15:21.201Z,91.14
2023-06-30T00:17:49.716Z,92.76
2023-06-30T00:20:16.832Z,92.32
2023-06-30T00:22:43.689Z,91.82
2023-06-30T00:25:11.660Z,91.60
2023-06-30T00:27:39.645Z,92.18
2023-06-30T00:30:06.727Z,93.55
2023-06-30T00:32:34.413Z,93.27
2023-06-30T00:35:01.482Z,93.01
2023-06-30T00:37:28.373Z,93.55
2023-06-30T00:39:55.444Z,92.96
2023-06-30T00:42:24.716Z,92.82
2023-06-30T00:44:51.571Z,92.69
2023-06-30T00:47:19.321Z,92.91
2023-06-30T00:49:46.678Z,93.31
2023-06-30T00:52:13.475Z,94.09
2023-06-30T00:54:41.448Z,94.19
2023-06-30T00:57:08.459Z,94.31
2023-06-30T00:59:35.394Z,94.07
2023-06-30T01:02:06.070Z,92.89
2023-06-30T01:04:48.426Z,93.31
2023-06-30T01:07:21.240Z,94.55
2023-06-30T01:09:52.527Z,94.14
2023-06-30T01:12:19.809Z,93.54
2023-06-30T01:14:47.824Z,93.24
2023-06-30T01:17:16.567Z,93.64
2023-06-30T01:19:46.342Z,93.90
2023-06-30T01:22:20.427Z,95.17
2023-06-30T01:24:49.280Z,95.52
2023-06-30T01:27:16.113Z,95.85
2023-06-30T01:29:43.783Z,95.57
2023-06-30T01:32:11.077Z,95.90
2023-06-30T01:34:38.334Z,95.29
2023-06-30T01:37:05.165Z,94.87
2023-06-30T01:39:32.261Z,94.81
2023-06-30T01:42:00.360Z,95.73
2023-06-30T01:44:28.002Z,96.57
2023-06-30T01:46:54.901Z,95.80
2023-06-30T01:49:22.360Z,94.95
2023-06-30T01:51:50.202Z,95.28
2023-06-30T01:54:16.968Z,95.63
2023-06-30T01:56:50.507Z,95.82
2023-06-30T01:59:17.717Z,94.62
2023-06-30T02:01:44.549Z,94.16
2023-06-30T02:04:11.472Z,94.68
2023-06-30T02:06:38.258Z,94.87
2023-06-30T02:09:05.190Z,95.21
2023-06-30T02:11:32.360Z,95.54
2023-06-30T02:13:59.182Z,94.27
2023-06-30T02:16:26.084Z,93.59
2023-06-30T02:18:56.111Z,95.01
2023-06-30T02:21:23.401Z,97.31
2023-06-30T02:23:50.188Z,98.29
2023-06-30T02:26:17.154Z,96.75
2023-06-30T02:28:44.106Z,95.91
2023-06-30T02:31:11.142Z,97.18
2023-06-30T02:33:38.900Z,97.43
2023-06-30T02:36:05.859Z,98.87
2023-06-30T02:38:32.982Z,98.42
2023-06-30T02:40:59.868Z,98.81
2023-06-30T02:43:28.677Z,99.05
2023-06-30T02:45:55.642Z,98.14
2023-06-30T02:48:22.667Z,98.32
2023-06-30T02:50:49.839Z,99.44
2023-06-30T02:53:17.433Z,99.36
2023-06-30T02:55:44.517Z,98.71
2023-06-30T02:58:15.134Z,99.57
2023-06-30T03:00:42.931Z,100.00
2023-06-30T03:03:10.118Z,98.89
2023-06-30T03:05:38.411Z,98.30
2023-06-30T03:08:07.122Z,98.30
2023-06-30T03:10:34.359Z,97.82
2023-06-30T03:13:01.298Z,98.44
2023-06-30T03:15:29.132Z,99.31
2023-06-30T03:17:56.783Z,99.31
2023-06-30T03:20:24.595Z,99.20
2023-06-30T03:22:53.179Z,99.32
2023-06-30T03:25:20.545Z,98.60
2023-06-30T03:27:47.482Z,98.59
2023-06-30T03:30:14.697Z,97.50
2023-06-30T03:32:45.202Z,96.79
2023-06-30T03:35:12.089Z,95.34
2023-06-30T03:37:38.894Z,94.09
2023-06-30T03:40:06.885Z,92.67
2023-06-30T03:42:34.120Z,89.89
2023-06-30T03:45:01.904Z,87.51
2023-06-30T03:47:32.125Z,86.90
2023-06-30T03:49:58.849Z,86.62
2023-06-30T03:52:27.601Z,85.73
2023-06-30T03:54:54.858Z,86.84
2023-06-30T03:57:21.770Z,88.05
2023-06-30T03:59:48.697Z,88.08
2023-06-30T04:02:15.497Z,88.27
2023-06-30T04:04:42.396Z,89.09
2023-06-30T04:07:09.620Z,90.62
2023-06-30T04:09:36.446Z,90.83
2023-06-30T04:12:03.354Z,91.92
2023-06-30T04:14:30.514Z,92.40
2023-06-30T04:16:59.300Z,91.79
2023-06-30T04:19:26.409Z,91.71
2023-06-30T04:21:53.261Z,90.82
2023-06-30T04:24:20.870Z,90.35
2023-06-30T04:26:47.852Z,89.54
2023-06-30T04:29:16.727Z,89.51
2023-06-30T04:31:44.131Z,87.50
2023-06-30T04:34:11.157Z,87.36
2023-06-30T04:36:38.325Z,86.85
2023-06-30T04:39:05.289Z,86.34
2023-06-30T04:41:32.277Z,85.87
2023-06-30T04:44:00.716Z,86.59
2023-06-30T04:46:28.423Z,86.89
2023-06-30T04:48:57.103Z,87.24
2023-06-30T04:51:24.804Z,82.62
2023-06-30T04:53:51.656Z,82.18
2023-06-30T04:56:20.214Z,83.00
2023-06-30T04:58:47.274Z,83.77
2023-06-30T05:01:14.184Z,82.30
2023-06-30T05:03:41.040Z,82.80
2023-06-30T05:06:08.130Z,80.99
2023-06-30T05:08:34.940Z,79.82
2023-06-30T05:11:01.851Z,78.24
2023-06-30T05:13:28.721Z,79.72
2023-06-30T05:15:55.561Z,80.67
2023-06-30T05:18:22.415Z,81.07
2023-06-30T05:20:49.344Z,81.31
2023-06-30T05:23:16.109Z,81.19
2023-06-30T05:25:43.795Z,81.43
2023-06-30T05:28:10.809Z,80.95
2023-06-30T05:30:37.613Z,81.00
2023-06-30T05:33:04.454Z,80.17
2023-06-30T05:35:31.786Z,79.77
2023-06-30T05:37:58.691Z,79.66
2023-06-30T05:40:25.514Z,78.82
2023-06-30T05:42:52.372Z,78.58
2023-06-30T05:45:19.261Z,78.66
2023-06-30T05:47:46.139Z,78.67
2023-06-30T05:50:12.885Z,78.06
2023-06-30T05:52:40.317Z,78.06
2023-06-30T05:55:07.353Z,76.66
2023-06-30T05:57:34.673Z,75.50
2023-06-30T06:00:01.418Z,76.76
2023-06-30T06:02:38.873Z,75.48
2023-06-30T06:05:06.089Z,74.94
2023-06-30T06:07:34.032Z,74.19
2023-06-30T06:10:01.035Z,75.11
2023-06-30T06:12:27.869Z,73.71
2023-06-30T06:14:54.795Z,74.11
2023-06-30T06:17:21.678Z,74.03
2023-06-30T06:19:49.536Z,73.90
2023-06-30T06:22:16.559Z,73.17
2023-06-30T06:24:43.480Z,72.59
2023-06-30T06:27:10.258Z,70.02
2023-06-30T06:29:37.030Z,70.21
2023-06-30T06:32:03.995Z,70.33
2023-06-30T06:34:31.049Z,70.71
2023-06-30T06:36:57.898Z,71.38
2023-06-30T06:39:24.868Z,70.03
2023-06-30T06:41:51.580Z,68.85
2023-06-30T06:44:18.529Z,69.43
2023-06-30T06:46:45.770Z,67.82
2023-06-30T06:49:12.769Z,68.03
2023-06-30T06:51:39.588Z,68.12
2023-06-30T06:54:06.396Z,68.48
2023-06-30T06:56:33.279Z,67.43
2023-06-30T06:59:00.156Z,67.09
2023-06-30T07:01:27.001Z,66.86
2023-06-30T07:03:54.047Z,66.49
2023-06-30T07:06:22.402Z,64.00
2023-06-30T07:08:50.185Z,64.42
2023-06-30T07:11:17.016Z,62.93
2023-06-30T07:13:43.939Z,63.60
2023-06-30T07:16:11.968Z,62.29
2023-06-30T07:18:38.978Z,62.91
2023-06-30T07:21:05.915Z,62.65
2023-06-30T07:23:32.798Z,62.50
2023-06-30T07:25:59.723Z,62.45
2023-06-30T07:28:26.628Z,61.82
2023-06-30T07:30:53.773Z,62.74
2023-06-30T07:33:21.164Z,63.48
2023-06-30T07:35:48.349Z,62.48
2023-06-30T07:38:15.429Z,61.15
2023-06-30T07:40:55.125Z,60.29
2023-06-30T07:43:23.938Z,60.95
2023-06-30T07:45:50.891Z,61.16
2023-06-30T07:48:17.792Z,60.30
2023-06-30T07:50:54.559Z,59.49
2023-06-30T07:53:30.407Z,59.21
2023-06-30T07:55:57.277Z,58.45
2023-06-30T07:58:24.088Z,57.98
2023-06-30T08:00:50.896Z,57.59
2023-06-30T08:03:17.961Z,54.57
2023-06-30T08:05:45.376Z,54.90
2023-06-30T08:08:12.946Z,52.24
2023-06-30T08:10:41.514Z,54.21
2023-06-30T08:13:09.079Z,55.17
2023-06-30T08:15:36.077Z,52.52
2023-06-30T08:18:10.249Z,52.76
2023-06-30T08:20:37.641Z,51.61
2023-06-30T08:23:04.554Z,49.41
2023-06-30T08:25:31.296Z,48.82
2023-06-30T08:27:58.669Z,49.08
2023-06-30T08:30:25.808Z,48.42
2023-06-30T08:32:55.460Z,49.30
2023-06-30T08:35:23.825Z,50.09
2023-06-30T08:37:53.294Z,49.82
2023-06-30T08:40:25.716Z,51.02
2023-06-30T08:42:53.337Z,47.68
2023-06-30T08:45:24.551Z,51.53
2023-06-30T08:47:52.246Z,50.06
2023-06-30T08:50:19.546Z,49.90
2023-06-30T08:52:46.666Z,48.91
2023-06-30T08:55:13.901Z,48.39
2023-06-30T08:57:42.489Z,46.91
2023-06-30T09:00:09.538Z,46.97
2023-06-30T09:02:37.759Z,46.95
2023-06-30T09:05:05.638Z,46.26
2023-06-30T09:07:39.253Z,45.40
2023-06-30T09:10:09.879Z,46.07
2023-06-30T09:12:38.845Z,45.08
2023-06-30T09:15:07.785Z,46.00
2023-06-30T09:17:34.832Z,44.21
2023-06-30T09:20:01.760Z,44.17
2023-06-30T09:22:55.311Z,44.55
2023-06-30T09:25:26.471Z,46.27
2023-06-30T09:27:53.839Z,44.37
2023-06-30T09:30:32.123Z,44.40
2023-06-30T09:32:59.143Z,44.94
2023-06-30T09:35:26.030Z,44.09
2023-06-30T09:37:54.330Z,44.18
2023-06-30T09:40:27.361Z,45.81
2023-06-30T09:42:54.494Z,46.15
2023-06-30T09:45:21.721Z,45.22
2023-06-30T09:47:52.665Z,45.94
2023-06-30T09:50:26.172Z,44.87
2023-06-30T09:52:53.019Z,45.57
2023-06-30T09:55:19.939Z,44.69
2023-06-30T09:57:47.600Z,43.80
2023-06-30T10:00:29.813Z,44.20
2023-06-30T10:03:06.472Z,42.73
2023-06-30T10:05:33.594Z,43.97
2023-06-30T10:08:03.682Z,42.96
2023-06-30T10:10:32.018Z,43.91
2023-06-30T10:13:00.009Z,43.43
2023-06-30T10:15:27.456Z,42.54
2023-06-30T10:17:55.869Z,42.10
2023-06-30T10:20:33.940Z,42.31
2023-06-30T10:23:09.918Z,42.08
2023-06-30T10:25:38.909Z,42.74
2023-06-30T10:28:07.539Z,42.55
2023-06-30T10:30:35.469Z,41.42
2023-06-30T10:33:02.866Z,42.96
2023-06-30T10:35:30.134Z,42.27
2023-06-30T10:37:57.558Z,42.33
2023-06-30T10:40:25.913Z,41.90
2023-06-30T10:42:54.562Z,41.55
2023-06-30T10:45:21.463Z,42.09
2023-06-30T10:47:54.176Z,42.31
2023-06-30T10:50:21.039Z,42.17
2023-06-30T10:52:51.865Z,43.18
2023-06-30T10:55:22.143Z,44.74
2023-06-30T10:57:53.014Z,43.26
2023-06-30T11:00:22.687Z,42.57
2023-06-30T11:02:59.799Z,42.25
2023-06-30T11:05:30.782Z,41.38
2023-06-30T11:08:05.346Z,41.18
2023-06-30T11:10:36.604Z,42.05
2023-06-30T11:13:04.503Z,42.01
2023-06-30T11:15:38.642Z,40.82
2023-06-30T11:18:07.497Z,40.92
2023-06-30T11:20:34.631Z,41.72
2023-06-30T11:23:06.570Z,41.66
2023-06-30T11:25:34.588Z,41.06
2023-06-30T11:28:03.446Z,42.44
2023-06-30T11:30:34.877Z,43.21
2023-06-30T11:33:01.729Z,43.31
2023-06-30T11:35:30.357Z,40.57
2023-06-30T11:37:57.198Z,42.09
2023-06-30T11:40:24.115Z,42.51
2023-06-30T11:42:51.311Z,42.73
2023-06-30T11:45:21.508Z,43.49
2023-06-30T11:47:50.679Z,43.21
2023-06-30T11:50:20.194Z,42.34
2023-06-30T11:52:48.673Z,41.63
2023-06-30T11:55:16.267Z,43.43
2023-06-30T11:57:44.493Z,42.56
2023-06-30T12:00:19.108Z,40.65
2023-06-30T12:02:59.633Z,40.33
2023-06-30T12:05:27.856Z,40.36
2023-06-30T12:07:57.442Z,39.82
2023-06-30T12:10:38.981Z,39.41
2023-06-30T12:13:09.758Z,39.48
2023-06-30T12:15:37.740Z,39.04
2023-06-30T12:18:07.658Z,40.41
2023-06-30T12:20:39.253Z,39.08
2023-06-30T12:23:07.250Z,40.34
2023-06-30T12:25:37.714Z,37.42
2023-06-30T12:28:05.356Z,35.97
2023-06-30T12:30:32.580Z,36.16
2023-06-30T12:33:00.919Z,37.65
2023-06-30T12:35:28.486Z,36.03
2023-06-30T12:37:55.205Z,35.97
2023-06-30T12:40:22.811Z,37.39
2023-06-30T12:42:49.703Z,37.81
2023-06-30T12:45:17.716Z,35.28
2023-06-30T12:47:44.676Z,33.27
2023-06-30T12:50:11.708Z,34.88
2023-06-30T12:52:38.790Z,34.05
2023-06-30T12:55:05.728Z,34.07
2023-06-30T12:57:32.633Z,35.17
2023-06-30T12:59:59.861Z,33.85
2023-06-30T13:02:26.608Z,34.43
2023-06-30T13:04:53.677Z,34.99
2023-06-30T13:07:20.568Z,35.11
2023-06-30T13:09:50.266Z,34.59
2023-06-30T13:12:18.224Z,33.33
2023-06-30T13:14:45.625Z,30.99
2023-06-30T13:17:12.478Z,27.61
2023-06-30T13:19:39.266Z,27.55
2023-06-30T13:22:06.321Z,29.85
2023-06-30T13:24:33.090Z,30.18
2023-06-30T13:27:00.321Z,27.53
2023-06-30T13:29:27.181Z,28.77
2023-06-30T13:31:54.744Z,29.14
2023-06-30T13:34:21.803Z,28.64
2023-06-30T13:36:48.599Z,28.25
2023-06-30T13:39:15.509Z,28.52
2023-06-30T13:41:43.168Z,28.17
2023-06-30T13:44:10.608Z,28.76
2023-06-30T13:46:37.495Z,28.41
2023-06-30T13:49:04.315Z,28.78
2023-06-30T13:51:31.204Z,27.82
2023-06-30T13:53:58.118Z,29.14
2023-06-30T13:56:25.007Z,29.84
2023-06-30T13:58:51.775Z,28.11
2023-06-30T14:01:18.651Z,28.70
2023-06-30T14:03:49.662Z,31.71
2023-06-30T14:06:17.710Z,30.44
2023-06-30T14:08:44.617Z,29.03
2023-06-30T14:11:11.371Z,28.61
2023-06-30T14:13:38.746Z,28.96
2023-06-30T14:16:05.788Z,27.02
2023-06-30T14:18:32.745Z,28.59
2023-06-30T14:20:59.581Z,26.78
2023-06-30T14:23:26.741Z,29.38
2023-06-30T14:25:53.633Z,28.02
2023-06-30T14:28:20.503Z,29.73
2023-06-30T14:30:47.333Z,29.12
2023-06-30T14:33:14.192Z,31.13
2023-06-30T14:35:41.058Z,26.86
2023-06-30T14:38:07.977Z,28.78
2023-06-30T14:40:34.926Z,28.69
2023-06-30T14:43:01.768Z,29.55
2023-06-30T14:45:31.601Z,29.20
2023-06-30T14:47:58.801Z,28.93
2023-06-30T14:50:25.880Z,30.21
2023-06-30T14:52:52.773Z,30.21
2023-06-30T14:55:19.633Z,28.93
2023-06-30T14:57:46.942Z,31.87
2023-06-30T15:00:14.412Z,30.17
2023-06-30T15:02:41.270Z,30.23
2023-06-30T15:05:08.364Z,30.66
2023-06-30T15:07:36.552Z,31.43
2023-06-30T15:10:03.665Z,32.28
2023-06-30T15:12:30.694Z,31.46
2023-06-30T15:14:57.628Z,30.38
2023-06-30T15:17:24.479Z,31.39
2023-06-30T15:19:51.560Z,32.87
2023-06-30T15:22:18.791Z,31.56
2023-06-30T15:24:45.700Z,31.47
2023-06-30T15:27:12.788Z,31.14
2023-06-30T15:29:39.611Z,30.83
2023-06-30T15:32:06.379Z,34.24
2023-06-30T15:34:33.203Z,32.00
2023-06-30T15:37:00.473Z,31.63
2023-06-30T15:39:27.953Z,31.77
2023-06-30T15:41:54.705Z,33.34
2023-06-30T15:44:21.492Z,33.09
2023-06-30T15:46:48.282Z,34.00
2023-06-30T15:49:15.134Z,32.07
2023-06-30T15:51:41.970Z,30.47
2023-06-30T15:54:08.772Z,33.29
2023-06-30T15:56:35.643Z,31.29
2023-06-30T15:59:02.523Z,31.08
2023-06-30T16:01:29.944Z,29.33
2023-06-30T16:03:56.938Z,29.43
2023-06-30T16:06:23.984Z,27.98
2023-06-30T16:08:50.800Z,26.60
2023-06-30T16:11:17.684Z,25.90
2023-06-30T16:14:03.442Z,23.29
2023-06-30T16:16:30.310Z,23.99
2023-06-30T16:18:57.174Z,23.75
2023-06-30T16:21:24.006Z,22.92
2023-06-30T16:23:51.341Z,22.47
2023-06-30T16:26:20.230Z,21.95
2023-06-30T16:28:47.155Z,23.46
2023-06-30T16:31:14.362Z,25.13
2023-06-30T16:33:41.567Z,26.17
2023-06-30T16:36:09.213Z,25.61
2023-06-30T16:38:36.265Z,25.15
2023-06-30T16:41:03.077Z,25.11
2023-06-30T16:43:29.945Z,24.63
2023-06-30T16:45:56.734Z,24.89
2023-06-30T16:48:23.532Z,25.39
2023-06-30T16:50:50.449Z,24.38
2023-06-30T16:53:17.490Z,22.69
2023-06-30T16:55:44.374Z,22.38
2023-06-30T16:58:13.523Z,21.89
2023-06-30T17:00:40.455Z,21.87
2023-06-30T17:03:07.418Z,22.64
2023-06-30T17:05:34.583Z,22.39
2023-06-30T17:08:01.342Z,21.60
2023-06-30T17:10:28.292Z,21.49
2023-06-30T17:12:55.950Z,21.97
2023-06-30T17:15:27.248Z,22.34
2023-06-30T17:17:56.562Z,24.25
2023-06-30T17:20:24.399Z,25.47
2023-06-30T17:22:51.516Z,27.11
2023-06-30T17:25:18.267Z,28.52
2023-06-30T17:27:45.285Z,30.32
2023-06-30T17:30:12.263Z,31.33
2023-06-30T17:32:39.440Z,32.70
2023-06-30T17:35:06.452Z,32.97
2023-06-30T17:37:33.296Z,34.75
2023-06-30T17:40:00.080Z,35.79
2023-06-30T17:42:26.832Z,37.92
2023-06-30T17:44:53.720Z,38.19
2023-06-30T17:47:20.766Z,38.29
2023-06-30T17:49:48.342Z,39.98
2023-06-30T17:52:16.229Z,41.19
2023-06-30T17:54:43.148Z,42.01
2023-06-30T17:57:09.973Z,43.10
2023-06-30T17:59:36.790Z,43.64
2023-06-30T18:02:06.226Z,45.05
2023-06-30T18:04:33.584Z,44.45
2023-06-30T18:07:06.580Z,45.33
2023-06-30T18:09:35.496Z,45.86
2023-06-30T18:12:02.863Z,45.91
2023-06-30T18:14:30.274Z,46.64
2023-06-30T18:16:57.524Z,47.72
2023-06-30T18:19:24.570Z,48.02
2023-06-30T18:21:52.864Z,48.33
2023-06-30T18:24:19.918Z,49.13
2023-06-30T18:26:50.276Z,49.27
2023-06-30T18:29:18.141Z,48.48
2023-06-30T18:31:45.152Z,48.88
2023-06-30T18:34:12.173Z,49.41
2023-06-30T18:36:39.040Z,49.48
2023-06-30T18:39:06.082Z,50.19
2023-06-30T18:41:32.878Z,51.45
2023-06-30T18:43:59.853Z,51.04
2023-06-30T18:46:29.785Z,51.62
2023-06-30T18:49:02.146Z,51.09
2023-06-30T18:51:31.260Z,50.14
2023-06-30T18:53:58.293Z,51.05
2023-06-30T18:56:26.123Z,51.43
2023-06-30T18:58:55.453Z,51.49
2023-06-30T19:01:22.488Z,51.20
2023-06-30T19:03:51.347Z,51.68
2023-06-30T19:06:21.755Z,52.49
2023-06-30T19:08:49.142Z,53.19
2023-06-30T19:11:16.357Z,53.54
2023-06-30T19:13:43.283Z,54.24
2023-06-30T19:16:10.849Z,54.07
2023-06-30T19:18:40.085Z,55.22
2023-06-30T19:21:10.480Z,55.15
2023-06-30T19:23:38.284Z,55.91
2023-06-30T19:26:05.273Z,56.72
2023-06-30T19:28:32.887Z,56.49
2023-06-30T19:31:00.231Z,56.13
2023-06-30T19:33:31.573Z,56.31
2023-06-30T19:35:58.693Z,57.73
2023-06-30T19:38:25.738Z,57.63
2023-06-30T19:40:52.718Z,58.33
2023-06-30T19:43:19.530Z,58.73
2023-06-30T19:45:46.966Z,59.10
2023-06-30T19:48:13.926Z,59.57
2023-06-30T19:50:42.679Z,59.70
2023-06-30T19:53:09.713Z,59.98
2023-06-30T19:55:36.872Z,59.68
2023-06-30T19:58:03.816Z,61.56
2023-06-30T20:00:31.152Z,61.47
2023-06-30T20:02:58.557Z,60.07
2023-06-30T20:05:25.520Z,62.09
2023-06-30T20:07:52.277Z,62.73
2023-06-30T20:10:19.217Z,62.84
2023-06-30T20:12:46.159Z,62.72
2023-06-30T20:15:13.074Z,62.85
2023-06-30T20:17:40.057Z,63.75
2023-06-30T20:20:07.475Z,65.16
2023-06-30T20:22:34.449Z,65.53
2023-06-30T20:25:01.446Z,65.60
2023-06-30T20:27:29.394Z,65.88
2023-06-30T20:29:56.152Z,68.27
2023-06-30T20:32:23.365Z,68.24
2023-06-30T20:34:59.018Z,68.65
2023-06-30T20:37:25.919Z,70.33
2023-06-30T20:39:55.955Z,71.07
2023-06-30T20:42:23.953Z,70.07
2023-06-30T20:44:51.265Z,70.83
2023-06-30T20:47:18.746Z,71.24
2023-06-30T20:49:45.991Z,70.95
2023-06-30T20:52:12.884Z,72.96
2023-06-30T20:54:39.722Z,72.59
2023-06-30T20:57:06.737Z,72.42
2023-06-30T20:59:33.575Z,74.49
2023-06-30T21:02:01.047Z,73.61
2023-06-30T21:04:28.029Z,74.10
2023-06-30T21:06:55.001Z,75.48
2023-06-30T21:09:21.755Z,75.02
2023-06-30T21:11:48.633Z,76.58
2023-06-30T21:14:15.415Z,75.57
2023-06-30T21:16:42.862Z,75.74
2023-06-30T21:19:09.859Z,76.69
2023-06-30T21:21:36.816Z,76.12
2023-06-30T21:24:03.807Z,77.51
2023-06-30T21:26:30.631Z,77.86
2023-06-30T21:28:57.456Z,78.74
2023-06-30T21:31:24.586Z,77.79
2023-06-30T21:33:51.810Z,77.73
2023-06-30T21:36:18.684Z,79.46
2023-06-30T21:38:45.535Z,78.90
2023-06-30T21:41:12.537Z,79.10
2023-06-30T21:43:39.287Z,79.17
2023-06-30T21:46:16.590Z,79.89
2023-06-30T21:48:44.576Z,79.49
2023-06-30T21:51:11.397Z,79.12
2023-06-30T21:53:38.328Z,80.30
2023-06-30T21:56:05.702Z,81.66
2023-06-30T21:58:32.674Z,80.73
2023-06-30T22:00:59.643Z,81.66
2023-06-30T22:03:27.291Z,83.34
2023-06-30T22:05:54.285Z,83.56
2023-06-30T22:08:21.313Z,83.20
2023-06-30T22:10:48.465Z,84.01
2023-06-30T22:13:15.446Z,83.76
2023-06-30T22:15:42.367Z,83.11
2023-06-30T22:18:09.768Z,83.56
2023-06-30T22:20:36.663Z,84.46
2023-06-30T22:23:03.465Z,84.07
2023-06-30T22:25:30.352Z,84.55
2023-06-30T22:27:57.229Z,85.09
2023-06-30T22:30:25.853Z,84.52
2023-06-30T22:32:52.956Z,84.47
2023-06-30T22:35:19.915Z,83.82
2023-06-30T22:37:46.751Z,84.29
2023-06-30T22:40:14.350Z,84.17
2023-06-30T22:42:41.331Z,83.81
2023-06-30T22:45:08.366Z,82.31
2023-06-30T22:47:35.372Z,82.73
2023-06-30T22:50:02.814Z,82.72
2023-06-30T22:52:30.567Z,82.93
2023-06-30T22:54:57.408Z,83.41
2023-06-30T22:57:24.230Z,83.53
2023-06-30T22:59:52.604Z,85.32
2023-06-30T23:02:19.830Z,86.34
2023-06-30T23:04:46.914Z,84.81
2023-06-30T23:07:16.046Z,85.70
2023-06-30T23:09:42.938Z,85.99
2023-06-30T23:12:10.003Z,86.58
2023-06-30T23:14:36.826Z,86.57
2023-06-30T23:17:04.450Z,85.61
2023-06-30T23:19:33.152Z,86.78
2023-06-30T23:22:12.840Z,86.13
2023-06-30T23:24:39.827Z,86.62
2023-06-30T23:27:07.049Z,87.04
2023-06-30T23:29:37.304Z,86.42
2023-06-30T23:32:08.252Z,84.89
2023-06-30T23:34:38.140Z,85.93
2023-06-30T23:37:05.516Z,86.08
2023-06-30T23:39:32.335Z,86.16
2023-06-30T23:41:59.472Z,85.97
2023-06-30T23:44:26.841Z,86.40
2023-06-30T23:46:54.606Z,86.75
2023-06-30T23:49:21.750Z,87.55
2023-06-30T23:51:48.963Z,86.96
2023-06-30T23:54:16.086Z,86.79
2023-06-30T23:56:43.355Z,87.82
2023-06-30T23:59:10.548Z,87.27
